Time;durP1;ratioP1;P1;durP2;ratioP2;P2;SDS_P1;SDS_P2;PMS_P1;PMS_P2;Temp;Humidity;BMP_temperature;BMP_pressure;BME280_temperature;BME280_humidity;BME280_pressure;Samples;Min_cycle;Max_cycle;Signal;HPM_P1;HPM_P2
2024/01/03 00:00:27;;;;;;;3.47;3.17;;;;;;;7.44;99.12;97914.13;5031570;28;20233;-58
2024/01/03 00:02:53;;;;;;;3.00;2.70;;;;;;;6.95;99.08;97827.28;5031385;28;20191;-58
2024/01/03 00:05:22;;;;;;;4.50;2.95;;;;;;;7.47;98.06;97908.75;5031401;28;20276;-58
2024/01/03 00:07:48;;;;;;;2.78;2.58;;;;;;;7.06;98.04;97817.97;5031411;28;20187;-58
2024/01/03 00:10:28;;;;;;;3.30;3.00;;;;;;;7.69;97.71;97916.75;5031357;28;20181;-58
2024/01/03 00:13:00;;;;;;;3.35;3.05;;;;;;;7.64;97.63;97903.34;5031095;28;20170;-58
2024/01/03 00:15:35;;;;;;;4.43;3.30;;;;;;;7.64;97.12;97908.50;5029119;28;20726;-58
2024/01/03 00:18:04;;;;;;;3.47;3.17;;;;;;;7.46;97.20;97898.59;5031378;28;20520;-58
2024/01/03 00:20:29;;;;;;;3.55;3.25;;;;;;;7.10;97.52;97852.84;5031088;28;20960;-58
2024/01/03 00:22:55;;;;;;;3.22;2.72;;;;;;;7.10;97.20;97840.00;5031268;28;20684;-58
2024/01/03 00:25:28;;;;;;;3.92;2.75;;;;;;;7.01;96.19;97814.03;5031201;28;20244;-58
2024/01/03 00:27:54;;;;;;;2.70;2.50;;;;;;;7.49;97.00;97893.22;5030952;28;20185;-58
2024/01/03 00:30:20;;;;;;;4.07;2.90;;;;;;;7.49;96.69;97891.50;5030932;28;20561;-58
2024/01/03 00:32:46;;;;;;;3.05;2.67;;;;;;;7.04;95.16;97804.38;5031158;28;20178;-58
2024/01/03 00:35:12;;;;;;;3.20;3.00;;;;;;;7.52;95.71;97886.13;5031235;28;20628;-58
2024/01/03 00:37:40;;;;;;;3.38;3.10;;;;;;;7.53;96.27;97886.97;5031118;28;20649;-58
2024/01/03 00:40:36;;;;;;;2.78;2.58;;;;;;;7.39;95.96;97851.81;5031091;28;20236;-58
2024/01/03 00:43:02;;;;;;;3.03;2.83;;;;;;;7.03;95.80;97792.44;5034667;28;20174;-58
2024/01/03 00:45:27;;;;;;;3.60;2.63;;;;;;;7.19;96.39;97852.28;5034820;28;20568;-58
2024/01/03 00:47:53;;;;;;;3.63;2.35;;;;;;;6.90;96.18;97814.75;5034922;28;20199;-58
2024/01/03 00:50:18;;;;;;;3.00;2.80;;;;;;;6.89;96.62;97815.66;5034944;28;20171;-58
2024/01/03 00:52:44;;;;;;;3.58;2.80;;;;;;;7.22;96.08;97866.72;5035082;28;20183;-58
2024/01/03 00:55:09;;;;;;;4.93;3.35;;;;;;;7.39;97.45;97905.06;5034748;28;20178;-58
2024/01/03 00:57:36;;;;;;;5.32;4.07;;;;;;;7.02;97.93;97842.25;5034730;28;20233;-58
2024/01/03 01:00:03;;;;;;;13.40;8.80;;;;;;;7.45;96.51;97894.38;5034720;28;20189;-58
2024/01/03 01:02:29;;;;;;;16.38;10.68;;;;;;;7.31;93.89;97920.97;5034823;28;20649;-58
2024/01/03 01:04:54;;;;;;;20.88;12.75;;;;;;;6.86;92.25;97882.69;5034558;28;20238;-58
2024/01/03 01:07:20;;;;;;;19.77;11.77;;;;;;;6.83;91.54;97907.78;5034522;28;20174;-58
2024/01/03 01:09:45;;;;;;;21.83;12.25;;;;;;;6.57;91.70;97868.25;5034501;28;20255;-58
2024/01/03 01:12:11;;;;;;;25.98;12.68;;;;;;;6.41;92.45;97859.81;5034489;28;20694;-58
2024/01/03 01:14:36;;;;;;;23.30;12.35;;;;;;;6.51;92.06;97890.91;5034468;28;20174;-58
2024/01/03 01:17:01;;;;;;;21.23;13.43;;;;;;;6.50;90.85;97935.50;5034444;28;20171;-58
2024/01/03 01:19:27;;;;;;;27.05;14.63;;;;;;;5.91;90.42;97915.91;5034335;28;20615;-58
2024/01/03 01:21:53;;;;;;;25.38;13.15;;;;;;;5.38;92.13;97835.19;5034459;28;20336;-58
2024/01/03 01:24:18;;;;;;;28.23;14.35;;;;;;;5.69;93.69;97930.84;5051036;28;20186;-58
2024/01/03 01:26:44;;;;;;;25.48;14.80;;;;;;;4.93;95.21;97836.03;5051698;28;20216;-58
2024/01/03 01:29:09;;;;;;;28.55;14.55;;;;;;;4.80;96.74;97834.22;5051693;28;20182;-58
2024/01/03 01:31:34;;;;;;;27.98;15.55;;;;;;;5.15;99.16;97920.28;5051668;28;20290;-58
2024/01/03 01:34:00;;;;;;;26.75;14.63;;;;;;;4.79;100.00;97879.50;5051583;28;20679;-58
2024/01/03 01:36:25;;;;;;;28.40;14.50;;;;;;;4.70;100.00;97859.53;5051540;28;20186;-58
2024/01/03 01:38:51;;;;;;;23.58;13.88;;;;;;;4.65;100.00;97851.25;5051448;28;20213;-58
2024/01/03 01:41:16;;;;;;;20.00;12.55;;;;;;;4.49;100.00;97819.66;5051485;28;20251;-58
2024/01/03 01:43:42;;;;;;;24.70;13.20;;;;;;;5.28;100.00;97921.25;5051366;28;20186;-58
2024/01/03 01:46:09;;;;;;;22.17;12.27;;;;;;;4.71;100.00;97819.34;5051253;28;20210;-58
2024/01/03 01:48:35;;;;;;;21.17;11.70;;;;;;;4.59;100.00;97807.19;5051261;28;20174;-57
2024/01/03 01:51:01;;;;;;;17.85;11.05;;;;;;;4.89;100.00;97833.72;5051264;28;20200;-58
2024/01/03 01:53:27;;;;;;;11.00;7.43;;;;;;;4.99;100.00;97838.25;5051127;28;20200;-58
2024/01/03 01:55:52;;;;;;;6.65;5.00;;;;;;;5.54;100.00;97900.91;5037923;28;20187;-58
2024/01/03 01:58:21;;;;;;;4.63;3.85;;;;;;;5.66;100.00;97900.22;5033637;28;20237;-58
2024/01/03 02:00:46;;;;;;;4.88;3.60;;;;;;;5.80;100.00;97887.47;5033621;28;20182;-58
2024/01/03 02:03:12;;;;;;;6.03;3.20;;;;;;;5.65;100.00;97841.31;5033540;28;20228;-58
2024/01/03 02:05:38;;;;;;;2.60;2.40;;;;;;;5.62;100.00;97826.91;5033387;28;20198;-58
2024/01/03 02:08:08;;;;;;;4.90;3.28;;;;;;;5.66;100.00;97815.53;5033175;28;20601;-58
2024/01/03 02:10:33;;;;;;;4.13;3.70;;;;;;;5.70;100.00;97822.16;5033334;28;20182;-58
2024/01/03 02:12:58;;;;;;;4.88;3.33;;;;;;;5.97;100.00;97863.38;5033633;28;20705;-58
2024/01/03 02:15:24;;;;;;;4.00;3.60;;;;;;;5.77;100.00;97812.38;5033294;28;20262;-58
2024/01/03 02:17:51;;;;;;;7.15;6.00;;;;;;;5.80;100.00;97825.03;5033175;28;20190;-58
2024/01/03 02:20:16;;;;;;;8.85;7.13;;;;;;;6.15;100.00;97886.25;5033484;28;20198;-58
2024/01/03 02:22:42;;;;;;;14.27;11.45;;;;;;;6.25;100.00;97925.03;5033478;28;20656;-58
2024/01/03 02:25:10;;;;;;;17.75;12.80;;;;;;;5.66;99.80;97832.69;5032569;28;20233;-58
2024/01/03 02:27:36;;;;;;;20.83;12.68;;;;;;;5.97;97.06;97879.63;5033022;28;20174;-58
2024/01/03 02:30:04;;;;;;;17.42;12.15;;;;;;;6.16;97.33;97916.13;5036580;28;20177;-58
2024/01/03 02:32:29;;;;;;;19.25;12.65;;;;;;;6.08;96.17;97912.38;5030311;28;20187;-58
2024/01/03 02:34:54;;;;;;;17.75;12.95;;;;;;;5.80;97.37;97897.75;5030490;28;20195;-58
2024/01/03 02:37:22;;;;;;;17.60;12.07;;;;;;;5.56;97.70;97880.31;5030437;28;20217;-58
2024/01/03 02:39:49;;;;;;;19.40;13.18;;;;;;;5.09;98.48;97852.22;5030348;28;20183;-58
2024/01/03 02:42:14;;;;;;;21.00;13.93;;;;;;;5.19;100.00;97901.25;5030426;28;20239;-58
2024/01/03 02:44:40;;;;;;;19.90;14.43;;;;;;;4.96;100.00;97848.66;5030253;28;20301;-58
2024/01/03 02:47:06;;;;;;;23.45;15.70;;;;;;;4.98;100.00;97839.16;5030290;28;20584;-58
2024/01/03 02:49:31;;;;;;;22.92;16.17;;;;;;;5.24;100.00;97892.38;5030107;28;20277;-58
2024/01/03 02:51:57;;;;;;;23.60;14.98;;;;;;;4.82;100.00;97843.47;5030321;28;20270;-58
2024/01/03 02:54:22;;;;;;;24.95;14.73;;;;;;;4.68;100.00;97837.44;5030088;28;20742;-58
2024/01/03 02:56:47;;;;;;;29.77;16.20;;;;;;;5.02;100.00;97907.28;5030060;28;20197;-58
2024/01/03 02:59:13;;;;;;;31.70;16.80;;;;;;;4.46;100.00;97819.00;5030073;28;20182;-58
2024/01/03 03:01:38;;;;;;;29.70;17.08;;;;;;;5.01;100.00;97899.69;5029999;28;20625;-58
2024/01/03 03:04:04;;;;;;;38.30;17.48;;;;;;;4.99;100.00;97907.47;5029427;28;20190;-58
2024/01/03 03:06:29;;;;;;;34.00;19.13;;;;;;;4.52;100.00;97852.81;5029819;28;20210;-58
2024/01/03 03:08:55;;;;;;;38.28;21.50;;;;;;;4.76;100.00;97913.00;5031754;28;20178;-58
2024/01/03 03:11:20;;;;;;;38.22;19.55;;;;;;;4.46;100.00;97870.25;5052080;28;20239;-58
2024/01/03 03:13:46;;;;;;;35.08;17.98;;;;;;;4.40;100.00;97871.41;5052055;28;20327;-58
2024/01/03 03:16:11;;;;;;;37.05;18.35;;;;;;;4.54;100.00;97857.88;5052140;28;20185;-58
2024/01/03 03:18:36;;;;;;;40.03;19.05;;;;;;;4.21;100.00;97804.13;5052071;28;20177;-58
2024/01/03 03:21:02;;;;;;;40.97;18.73;;;;;;;4.21;100.00;97824.59;5051561;28;20217;-57
2024/01/03 03:23:27;;;;;;;37.03;18.33;;;;;;;3.93;100.00;97808.22;5051960;28;20178;-58
2024/01/03 03:25:53;;;;;;;35.78;17.88;;;;;;;4.02;100.00;97829.03;5051583;28;20723;-58
2024/01/03 03:28:19;;;;;;;30.27;16.05;;;;;;;4.21;100.00;97865.56;5051644;28;20315;-57
2024/01/03 03:30:44;;;;;;;28.88;13.95;;;;;;;4.47;100.00;97898.34;5051536;28;20581;-58
2024/01/03 03:33:10;;;;;;;19.15;12.15;;;;;;;4.54;100.00;97871.50;5051769;28;20200;-58
2024/01/03 03:35:35;;;;;;;22.05;11.45;;;;;;;4.53;100.00;97862.16;5051728;28;20260;-58
2024/01/03 03:38:01;;;;;;;8.48;5.57;;;;;;;4.15;100.00;97768.59;5051683;28;20182;-58
2024/01/03 03:40:26;;;;;;;2.75;2.42;;;;;;;4.49;100.00;97836.78;5049097;28;20182;-58
2024/01/03 03:42:52;;;;;;;3.78;2.70;;;;;;;4.54;100.00;97843.31;5049228;28;20186;-58
2024/01/03 03:45:17;;;;;;;2.78;2.58;;;;;;;4.70;100.00;97856.13;5049095;28;20300;-58
2024/01/03 03:47:42;;;;;;;2.45;2.35;;;;;;;4.13;100.00;97756.78;5049127;28;20181;-58
2024/01/03 03:50:08;;;;;;;2.50;2.30;;;;;;;4.22;100.00;97782.75;5049147;28;20256;-58
2024/01/03 03:52:34;;;;;;;3.08;2.47;;;;;;;4.80;100.00;97878.63;5048983;28;20622;-58
2024/01/03 03:55:00;;;;;;;15.32;10.15;;;;;;;4.19;100.00;97765.00;5049064;28;20181;-58
2024/01/03 03:57:25;;;;;;;22.13;13.70;;;;;;;4.55;100.00;97818.53;5048972;28;20276;-58
2024/01/03 03:59:51;;;;;;;21.50;15.10;;;;;;;4.82;100.00;97868.25;5049005;28;20720;-58
2024/01/03 04:02:16;;;;;;;19.77;12.63;;;;;;;4.58;100.00;97836.28;5028923;28;20195;-58
2024/01/03 04:04:41;;;;;;;22.88;13.70;;;;;;;4.79;100.00;97859.00;5028920;28;20232;-58
2024/01/03 04:07:07;;;;;;;22.90;14.75;;;;;;;4.32;100.00;97777.97;5028986;28;20291;-58
2024/01/03 04:09:32;;;;;;;32.42;20.50;;;;;;;4.24;100.00;97778.38;5028961;28;20261;-58
2024/01/03 04:11:58;;;;;;;41.30;24.73;;;;;;;4.14;100.00;97778.97;5028885;28;20190;-58
2024/01/03 04:14:23;;;;;;;44.03;23.85;;;;;;;4.36;100.00;97813.56;5029238;28;20174;-58
2024/01/03 04:16:48;;;;;;;31.88;18.52;;;;;;;4.11;100.00;97762.03;5032537;28;20191;-58
2024/01/03 04:19:14;;;;;;;36.67;19.52;;;;;;;4.95;100.00;97875.22;5053031;28;20268;-58
2024/01/03 04:21:39;;;;;;;33.13;18.35;;;;;;;4.94;100.00;97876.13;5052692;28;20213;-58
2024/01/03 04:24:05;;;;;;;35.92;19.52;;;;;;;4.26;100.00;97756.06;5052916;28;20620;-58
2024/01/03 04:26:30;;;;;;;30.83;18.60;;;;;;;4.93;100.00;97855.69;5052789;28;20205;-58
2024/01/03 04:28:56;;;;;;;33.13;18.85;;;;;;;4.24;100.00;97786.06;5052764;28;20272;-58
2024/01/03 04:31:21;;;;;;;33.45;18.70;;;;;;;4.83;100.00;97880.19;5052796;28;20304;-58
2024/01/03 04:33:46;;;;;;;31.52;17.88;;;;;;;4.86;100.00;97895.38;5054136;28;20186;-58
2024/01/03 04:36:12;;;;;;;38.05;18.77;;;;;;;4.32;100.00;97786.47;5054765;28;20223;-58
2024/01/03 04:38:37;;;;;;;39.30;20.40;;;;;;;4.71;100.00;97848.34;5055061;28;20177;-58
2024/01/03 04:41:03;;;;;;;42.05;21.38;;;;;;;4.85;100.00;97901.44;5055027;28;20213;-58
2024/01/03 04:43:29;;;;;;;42.58;21.02;;;;;;;4.52;100.00;97851.97;5054957;28;20174;-58
2024/01/03 04:45:54;;;;;;;35.58;19.38;;;;;;;4.76;100.00;97897.63;5054849;28;20206;-58
2024/01/03 04:48:20;;;;;;;40.70;20.65;;;;;;;4.23;100.00;97822.81;5054866;28;20528;-58
2024/01/03 04:50:46;;;;;;;40.83;19.80;;;;;;;4.45;100.00;97881.41;5054776;28;20185;-58
2024/01/03 04:53:11;;;;;;;38.17;20.70;;;;;;;3.68;100.00;97770.25;5054877;28;20178;-58
2024/01/03 04:55:37;;;;;;;32.53;19.27;;;;;;;4.04;100.00;97864.78;5054746;28;20185;-58
2024/01/03 04:58:02;;;;;;;33.45;20.48;;;;;;;3.87;100.00;97864.81;5054779;28;20239;-58
2024/01/03 05:00:28;;;;;;;44.38;22.88;;;;;;;3.65;100.00;97819.03;5054719;28;20196;-58
2024/01/03 05:02:54;;;;;;;41.78;22.33;;;;;;;4.19;100.00;97867.38;5054561;28;20208;-58
2024/01/03 05:05:19;;;;;;;45.28;22.65;;;;;;;3.65;100.00;97756.81;5054515;28;20201;-58
2024/01/03 05:07:45;;;;;;;34.95;18.77;;;;;;;3.93;100.00;97780.91;5071838;28;20659;-58
2024/01/03 05:10:10;;;;;;;36.58;20.35;;;;;;;3.81;100.00;97779.00;5072042;28;20303;-58
2024/01/03 05:12:37;;;;;;;36.03;19.98;;;;;;;4.24;100.00;97842.38;5071940;28;20197;-58
2024/01/03 05:15:05;;;;;;;39.78;20.30;;;;;;;3.62;100.00;97749.31;5051896;28;20196;-58
2024/01/03 05:17:31;;;;;;;27.13;16.90;;;;;;;4.47;100.00;97834.31;5051848;28;20722;-58
2024/01/03 05:19:57;;;;;;;22.35;12.00;;;;;;;4.22;100.00;97759.72;5051754;28;20217;-57
2024/01/03 05:22:22;;;;;;;3.55;3.25;;;;;;;4.75;100.00;97836.19;5051829;28;20272;-58
2024/01/03 05:24:48;;;;;;;3.40;3.10;;;;;;;4.65;100.00;97796.59;5051965;28;20615;-58
2024/01/03 05:27:13;;;;;;;2.50;2.30;;;;;;;4.70;100.00;97802.31;5051312;28;20702;-58
2024/01/03 05:29:39;;;;;;;2.67;2.50;;;;;;;4.71;100.00;97793.72;5051697;28;20244;-58
2024/01/03 05:32:05;;;;;;;2.90;2.70;;;;;;;4.91;100.00;97789.13;5051710;28;20668;-58
2024/01/03 05:34:30;;;;;;;3.78;2.90;;;;;;;4.44;100.00;97726.09;5051500;28;20276;-58
2024/01/03 05:36:55;;;;;;;2.63;2.53;;;;;;;4.47;100.00;97733.59;5011206;28;20275;-58
2024/01/03 05:39:21;;;;;;;2.30;2.20;;;;;;;4.79;100.00;97756.50;5011791;28;20195;-58
2024/01/03 05:41:46;;;;;;;2.53;2.33;;;;;;;5.12;100.00;97815.34;5011724;28;20187;-58
2024/01/03 05:44:13;;;;;;;7.35;4.70;;;;;;;5.13;100.00;97807.53;5011828;28;20260;-58
2024/01/03 05:46:39;;;;;;;38.70;21.45;;;;;;;4.83;100.00;97763.13;5026594;28;20225;-57
2024/01/03 05:49:05;;;;;;;46.80;23.75;;;;;;;5.09;100.00;97811.19;5031741;28;20178;-58
2024/01/03 05:51:31;;;;;;;42.65;22.40;;;;;;;5.39;100.00;97881.28;5031362;28;20191;-58
2024/01/03 05:53:56;;;;;;;38.25;20.50;;;;;;;5.12;100.00;97846.91;5031371;28;20263;-58
2024/01/03 05:56:22;;;;;;;29.40;17.65;;;;;;;4.66;100.00;97768.34;5031261;28;20186;-58
2024/01/03 05:58:47;;;;;;;31.88;18.33;;;;;;;5.01;100.00;97833.84;5031226;28;20194;-58
2024/01/03 06:01:12;;;;;;;29.20;16.27;;;;;;;4.70;100.00;97803.16;5031284;28;20266;-58
2024/01/03 06:03:38;;;;;;;33.65;19.25;;;;;;;4.80;100.00;97858.13;5011144;28;20265;-58
2024/01/03 06:06:03;;;;;;;32.30;18.50;;;;;;;4.43;100.00;97803.81;5011279;28;20302;-58
2024/01/03 06:08:29;;;;;;;34.67;18.77;;;;;;;4.96;100.00;97881.19;5040523;28;20190;-57
2024/01/03 06:10:55;;;;;;;31.08;18.13;;;;;;;4.97;100.00;97886.22;5051034;28;20178;-58
2024/01/03 06:13:22;;;;;;;29.90;17.70;;;;;;;4.91;100.00;97863.47;5050820;28;20204;-58
2024/01/03 06:15:47;;;;;;;31.08;18.42;;;;;;;4.26;100.00;97761.19;5050872;28;20252;-56
2024/01/03 06:18:13;;;;;;;32.00;18.52;;;;;;;4.59;100.00;97838.78;5050742;28;20209;-57
2024/01/03 06:20:38;;;;;;;30.83;19.25;;;;;;;4.33;100.00;97788.13;5050512;28;20690;-56
2024/01/03 06:23:04;;;;;;;32.13;20.30;;;;;;;4.79;100.00;97853.06;5050953;28;20197;-58
2024/01/03 06:25:31;;;;;;;34.67;21.77;;;;;;;5.02;100.00;97879.09;5050601;28;20204;-56
2024/01/03 06:27:56;;;;;;;40.53;23.58;;;;;;;4.73;100.00;97836.28;5050554;28;20182;-57
2024/01/03 06:30:22;;;;;;;33.25;20.25;;;;;;;4.72;100.00;97837.19;5050535;28;20615;-58
2024/01/03 06:32:47;;;;;;;26.17;16.65;;;;;;;4.56;100.00;97803.06;5050447;28;20603;-57
2024/01/03 06:35:12;;;;;;;27.38;16.25;;;;;;;5.16;100.00;97888.59;5052023;28;20186;-57
2024/01/03 06:37:39;;;;;;;23.08;14.18;;;;;;;5.28;100.00;97893.03;5052857;28;20177;-57
2024/01/03 06:40:05;;;;;;;20.55;13.35;;;;;;;5.16;100.00;97883.47;5051717;28;20166;-57
2024/01/03 06:42:31;;;;;;;22.33;13.75;;;;;;;4.98;100.00;97848.59;5053068;28;20192;-57
2024/01/03 06:44:56;;;;;;;21.52;14.18;;;;;;;5.23;100.00;97903.56;5052628;28;20279;-57
2024/01/03 06:47:21;;;;;;;26.75;17.00;;;;;;;5.22;100.00;97907.03;5052691;28;20185;-57
2024/01/03 06:49:47;;;;;;;38.53;22.65;;;;;;;4.98;100.00;97890.44;5052593;28;20671;-57
2024/01/03 06:52:12;;;;;;;34.88;21.52;;;;;;;4.85;100.00;97855.31;5052590;28;20178;-57
2024/01/03 06:54:37;;;;;;;31.92;20.58;;;;;;;5.51;100.00;97941.31;5049872;28;20676;-57
2024/01/03 06:57:03;;;;;;;35.53;20.00;;;;;;;5.22;100.00;97883.13;5050025;28;20242;-57
2024/01/03 06:59:29;;;;;;;30.98;20.05;;;;;;;5.27;100.00;97874.28;5049955;28;20260;-57
2024/01/03 07:01:54;;;;;;;45.63;28.85;;;;;;;5.15;100.00;97851.03;5050088;28;20216;-57
2024/01/03 07:04:22;;;;;;;46.40;30.60;;;;;;;4.83;100.00;97860.50;5049877;28;20260;-57
2024/01/03 07:06:47;;;;;;;38.70;26.13;;;;;;;4.77;100.00;97857.44;5049797;28;20290;-57
2024/01/03 07:09:13;;;;;;;39.95;25.40;;;;;;;5.15;100.00;97917.72;5038393;28;20182;-57
2024/01/03 07:11:38;;;;;;;34.25;21.48;;;;;;;5.33;100.00;97907.28;5029399;28;20198;-57
2024/01/03 07:14:05;;;;;;;34.20;22.27;;;;;;;4.95;100.00;97843.66;5029556;28;20657;-57
2024/01/03 07:16:30;;;;;;;34.78;23.40;;;;;;;5.15;100.00;97889.50;5029443;28;20190;-57
2024/01/03 07:18:56;;;;;;;35.05;21.88;;;;;;;5.18;100.00;97907.31;5029477;28;20197;-57
2024/01/03 07:21:22;;;;;;;40.95;24.48;;;;;;;4.82;100.00;97838.34;5029220;28;20670;-57
2024/01/03 07:23:48;;;;;;;43.13;26.85;;;;;;;4.62;100.00;97802.72;5029466;28;20191;-57
2024/01/03 07:26:14;;;;;;;39.50;24.52;;;;;;;5.09;100.00;97841.97;5029185;28;20229;-57
2024/01/03 07:28:40;;;;;;;37.22;24.00;;;;;;;5.28;100.00;97863.09;5029348;28;20666;-57
2024/01/03 07:31:05;;;;;;;50.83;27.55;;;;;;;5.50;100.00;97878.94;5027345;28;20193;-57
2024/01/03 07:33:30;;;;;;;48.60;26.83;;;;;;;5.16;100.00;97794.56;4989756;28;20215;-57
2024/01/03 07:35:56;;;;;;;52.15;28.23;;;;;;;5.25;100.00;97776.06;4989917;28;20689;-58
2024/01/03 07:38:21;;;;;;;52.67;27.92;;;;;;;5.72;100.00;97832.34;4989812;28;20188;-58
2024/01/03 07:40:47;;;;;;;54.20;29.15;;;;;;;6.06;100.00;97850.81;4989805;28;20180;-58
2024/01/03 07:43:12;;;;;;;42.97;26.15;;;;;;;5.67;100.00;97772.75;5018687;28;20186;-57
2024/01/03 07:45:38;;;;;;;40.58;24.08;;;;;;;5.90;100.00;97787.66;5029025;28;20206;-58
2024/01/03 07:48:04;;;;;;;23.08;13.68;;;;;;;6.20;100.00;97809.75;5028080;28;20187;-57
2024/01/03 07:50:29;;;;;;;10.48;6.57;;;;;;;6.10;100.00;97733.34;5027879;28;20186;-57
2024/01/03 07:52:55;;;;;;;3.83;3.50;;;;;;;6.66;100.00;97788.00;5029126;28;20228;-57
2024/01/03 07:55:20;;;;;;;3.25;2.95;;;;;;;6.72;100.00;97792.75;5029143;28;20240;-57
2024/01/03 07:57:46;;;;;;;2.92;2.72;;;;;;;6.35;100.00;97685.47;5048856;28;20319;-57
2024/01/03 08:00:11;;;;;;;2.50;2.20;;;;;;;6.81;100.00;97751.03;5028918;28;20285;-57
2024/01/03 08:02:37;;;;;;;3.20;2.90;;;;;;;7.08;100.00;97767.28;5028980;28;20183;-57
2024/01/03 08:05:03;;;;;;;2.10;2.00;;;;;;;7.24;100.00;97785.09;5014627;28;20215;-57
2024/01/03 08:07:28;;;;;;;3.85;3.00;;;;;;;7.31;100.00;97786.34;5008949;28;20573;-57
2024/01/03 08:09:54;;;;;;;10.35;5.85;;;;;;;7.10;100.00;97756.88;5009286;28;20210;-57
2024/01/03 08:12:19;;;;;;;5.93;4.55;;;;;;;7.24;100.00;97785.94;5009146;28;20179;-57
2024/01/03 08:14:44;;;;;;;25.60;13.98;;;;;;;7.32;100.00;97793.13;5009057;28;20198;-57
2024/01/03 08:17:10;;;;;;;36.38;21.00;;;;;;;7.61;100.00;97849.50;5009186;28;20269;-57
2024/01/03 08:19:35;;;;;;;42.30;21.25;;;;;;;7.37;100.00;97837.41;5009110;28;20295;-57
2024/01/03 08:22:01;;;;;;;43.28;24.15;;;;;;;7.16;100.00;97815.66;5008971;28;20259;-57
2024/01/03 08:24:26;;;;;;;51.95;28.33;;;;;;;6.93;100.00;97811.97;5009106;28;20231;-57
2024/01/03 08:26:52;;;;;;;62.78;31.08;;;;;;;6.53;100.00;97756.25;5009090;28;20191;-57
2024/01/03 08:29:17;;;;;;;55.35;29.75;;;;;;;6.67;100.00;97815.34;5009104;28;20333;-57
2024/01/03 08:31:46;;;;;;;62.00;30.25;;;;;;;6.72;100.00;97831.31;5017934;28;20783;-57
2024/01/03 08:34:12;;;;;;;57.75;30.15;;;;;;;6.66;100.00;97834.28;5028927;28;20191;-57
2024/01/03 08:36:44;;;;;;;56.38;30.08;;;;;;;6.74;100.00;97865.47;5028739;28;20194;-57
2024/01/03 08:39:10;;;;;;;54.03;30.98;;;;;;;6.27;100.00;97772.47;5028934;28;20182;-57
2024/01/03 08:41:36;;;;;;;56.60;30.83;;;;;;;6.67;100.00;97825.63;5028660;28;20348;-58
2024/01/03 08:44:02;;;;;;;55.55;29.70;;;;;;;6.66;100.00;97865.13;5028620;28;20186;-58
2024/01/03 08:46:32;;;;;;;49.95;28.33;;;;;;;6.35;100.00;97793.38;5028542;28;20654;-58
2024/01/03 08:48:58;;;;;;;50.38;26.05;;;;;;;6.74;100.00;97849.19;5028668;28;20269;-58
2024/01/03 08:51:24;;;;;;;48.47;26.70;;;;;;;6.52;100.00;97795.72;5028620;28;20290;-57
2024/01/03 08:53:50;;;;;;;49.35;28.17;;;;;;;6.58;100.00;97835.66;5028706;28;20265;-58
2024/01/03 08:56:16;;;;;;;55.30;31.10;;;;;;;6.42;100.00;97794.66;5028564;28;20273;-58
2024/01/03 08:58:43;;;;;;;52.92;30.35;;;;;;;6.30;100.00;97753.50;5028658;28;20262;-58
2024/01/03 09:01:14;;;;;;;53.65;29.30;;;;;;;6.55;100.00;97784.44;5028618;28;20183;-57
2024/01/03 09:03:39;;;;;;;51.80;29.02;;;;;;;6.36;100.00;97747.97;5033919;28;20187;-58
2024/01/03 09:06:06;;;;;;;51.67;29.77;;;;;;;6.12;100.00;97726.38;5034353;28;20225;-58
2024/01/03 09:08:32;;;;;;;63.22;33.85;;;;;;;6.51;100.00;97824.94;5034612;28;20228;-58
2024/01/03 09:10:58;;;;;;;58.33;31.23;;;;;;;6.16;100.00;97808.28;5034623;28;20178;-57
2024/01/03 09:13:23;;;;;;;60.80;32.65;;;;;;;5.90;100.00;97729.41;5034555;28;20170;-57
2024/01/03 09:15:49;;;;;;;58.22;31.33;;;;;;;6.00;100.00;97768.22;5034250;28;20184;-57
2024/01/03 09:18:14;;;;;;;59.95;32.05;;;;;;;5.89;100.00;97727.75;5034572;28;20265;-57
2024/01/03 09:20:39;;;;;;;62.72;32.03;;;;;;;5.69;100.00;97692.19;5034365;28;20217;-58
2024/01/03 09:23:05;;;;;;;65.15;34.10;;;;;;;5.69;100.00;97674.22;5034409;28;20206;-58
2024/01/03 09:25:30;;;;;;;65.05;35.30;;;;;;;5.74;100.00;97681.63;5034241;28;20264;-57
2024/01/03 09:27:56;;;;;;;67.68;37.63;;;;;;;6.04;100.00;97744.81;5034096;28;20225;-57
2024/01/03 09:30:21;;;;;;;63.75;34.58;;;;;;;5.56;100.00;97652.81;5034276;28;20596;-58
2024/01/03 09:32:49;;;;;;;66.35;33.92;;;;;;;6.21;100.00;97760.03;5034182;28;20182;-58
2024/01/03 09:35:15;;;;;;;63.00;32.75;;;;;;;5.92;100.00;97690.81;5034118;28;20175;-56
2024/01/03 09:37:41;;;;;;;65.72;33.97;;;;;;;6.47;100.00;97733.53;5034134;28;20178;-58
2024/01/03 09:40:08;;;;;;;68.28;35.50;;;;;;;6.24;100.00;97679.38;5034044;28;20187;-57
2024/01/03 09:42:35;;;;;;;69.28;35.70;;;;;;;6.42;100.00;97686.72;5033924;28;20190;-57
2024/01/03 09:45:01;;;;;;;61.97;33.15;;;;;;;6.72;100.00;97705.38;5033601;28;20583;-57
2024/01/03 09:47:27;;;;;;;61.60;31.92;;;;;;;6.39;100.00;97650.97;5033631;28;20185;-57
2024/01/03 09:49:52;;;;;;;65.88;32.35;;;;;;;6.20;100.00;97635.09;5033888;28;20171;-57
2024/01/03 09:52:18;;;;;;;58.13;29.63;;;;;;;6.36;100.00;97650.34;5033942;28;20177;-58
2024/01/03 09:54:44;;;;;;;59.85;31.10;;;;;;;6.42;100.00;97673.88;5033779;28;20245;-58
2024/01/03 09:57:10;;;;;;;49.58;28.05;;;;;;;6.73;100.00;97731.88;5034126;28;20185;-58
2024/01/03 09:59:36;;;;;;;56.95;29.17;;;;;;;6.81;100.00;97720.19;5033672;28;20232;-58
2024/01/03 10:02:01;;;;;;;52.33;27.75;;;;;;;6.55;100.00;97655.94;5033663;28;20177;-58
2024/01/03 10:04:27;;;;;;;47.45;25.98;;;;;;;6.60;100.00;97644.47;5033523;28;20218;-58
2024/01/03 10:06:58;;;;;;;42.28;24.92;;;;;;;6.69;100.00;97658.44;5033654;28;20306;-58
2024/01/03 10:09:24;;;;;;;45.83;26.42;;;;;;;6.65;100.00;97652.69;5050832;28;20193;-58
2024/01/03 10:11:52;;;;;;;55.42;28.40;;;;;;;7.16;100.00;97723.03;5050958;28;20186;-58
2024/01/03 10:14:19;;;;;;;51.55;30.10;;;;;;;6.97;100.00;97677.13;5049742;28;20676;-57
2024/01/03 10:16:45;;;;;;;56.88;30.27;;;;;;;6.96;100.00;97651.50;5050809;28;20271;-58
2024/01/03 10:19:13;;;;;;;60.97;32.88;;;;;;;7.28;100.00;97694.75;5050819;28;20660;-58
2024/01/03 10:21:46;;;;;;;60.35;31.15;;;;;;;7.46;100.00;97710.72;5050469;28;20306;-58
2024/01/03 10:24:12;;;;;;;57.53;30.13;;;;;;;7.55;100.00;97707.50;5050595;28;20319;-58
2024/01/03 10:26:37;;;;;;;52.80;29.42;;;;;;;7.50;100.00;97705.25;5050385;28;20704;-58
2024/01/03 10:29:14;;;;;;;51.15;28.70;;;;;;;7.69;100.00;97736.53;5050415;28;20202;-58
2024/01/03 10:31:40;;;;;;;45.70;27.27;;;;;;;7.02;100.00;97640.81;5050342;28;20181;-57
2024/01/03 10:34:08;;;;;;;45.85;26.02;;;;;;;7.49;100.00;97726.78;5050481;28;20185;-57
2024/01/03 10:36:34;;;;;;;51.10;28.25;;;;;;;6.86;100.00;97684.72;5050485;28;20643;-57
2024/01/03 10:39:01;;;;;;;51.58;26.95;;;;;;;6.37;100.00;97632.28;5049893;28;20723;-58
2024/01/03 10:41:29;;;;;;;51.17;29.60;;;;;;;6.93;100.00;97716.00;5052223;28;20648;-58
2024/01/03 10:43:56;;;;;;;53.42;28.13;;;;;;;6.95;100.00;97701.28;5052204;28;20173;-58
2024/01/03 10:46:23;;;;;;;49.20;28.40;;;;;;;6.59;100.00;97627.38;5045861;28;20212;-58
2024/01/03 10:48:49;;;;;;;51.72;28.20;;;;;;;7.13;100.00;97705.22;5031949;28;20205;-57
2024/01/03 10:51:18;;;;;;;65.03;32.53;;;;;;;6.64;100.00;97607.34;5031628;28;20261;-58
2024/01/03 10:53:47;;;;;;;58.25;31.02;;;;;;;6.83;100.00;97632.69;5032427;28;20208;-58
2024/01/03 10:56:15;;;;;;;58.17;32.40;;;;;;;7.15;100.00;97686.19;5032937;28;20179;-58
2024/01/03 10:58:41;;;;;;;64.38;32.17;;;;;;;6.73;100.00;97613.63;5032470;28;20179;-58
2024/01/03 11:01:18;;;;;;;60.50;31.95;;;;;;;6.45;100.00;97601.78;5031900;28;20653;-58
2024/01/03 11:04:08;;;;;;;55.60;29.63;;;;;;;6.99;100.00;97666.75;5032474;28;20185;-57
2024/01/03 11:06:39;;;;;;;64.35;31.98;;;;;;;7.16;100.00;97664.69;5032450;28;20202;-58
2024/01/03 11:09:05;;;;;;;57.45;31.58;;;;;;;7.07;100.00;97613.88;5032209;28;20182;-58
2024/01/03 11:11:35;;;;;;;55.20;27.90;;;;;;;7.26;100.00;97631.44;5032341;28;20167;-58
2024/01/03 11:14:20;;;;;;;53.67;28.90;;;;;;;7.09;100.00;97591.44;5032263;28;20179;-58
2024/01/03 11:16:46;;;;;;;56.15;28.08;;;;;;;7.44;100.00;97658.50;5032268;28;20182;-58